ENT4WJ LGKO-EPKT
Flight info
| Callsign | ENT4WJ |
|---|---|
| Flight time | 2h 20m |
| Altitude | 40000 |
| Route | LARKI UL609 MES DCT ATFIR N133 USALI DCT LOMOS DCT BUDOP DCT PITOK DCT REDSI/N0437F390 DCT MEBAN |
| Aircraft | B738/M-SDFGHIJ1RWXY/EB1 |
Departure
| Time | 2026-05-04 01:31 |
|---|---|
| Airport | Kos International Airport "Ippokratis" (LGKO) |
Arrival
| Time | 2026-05-04 03:51 |
|---|---|
| Airport | Katowice Wojciech Korfanty International Airport (EPKT) |
| Time | Latitude | Longitude | Altitude | Speed | Heading |
|---|---|---|---|---|---|
| 2026-05-04 01:12 | 36.80180 | 27.08900 | 418 ft | 0 kts | 57° |
| 2026-05-04 01:21 | 36.80179 | 27.08898 | 418 ft | 1 kts | 57° |
| 2026-05-04 01:21 | 36.80170 | 27.08880 | 407 ft | 3 kts | 57° |
| 2026-05-04 01:22 | 36.80159 | 27.08859 | 411 ft | 3 kts | 60° |
| 2026-05-04 01:22 | 36.80151 | 27.08837 | 409 ft | 3 kts | 82° |
| 2026-05-04 01:22 | 36.80152 | 27.08816 | 410 ft | 3 kts | 129° |
| 2026-05-04 01:22 | 36.80160 | 27.08807 | 418 ft | 2 kts | 148° |
| 2026-05-04 01:23 | 36.80174 | 27.08796 | 411 ft | 2 kts | 148° |
| 2026-05-04 01:23 | 36.80177 | 27.08794 | 409 ft | 0 kts | 148° |
| 2026-05-04 01:23 | 36.80177 | 27.08793 | 409 ft | 0 kts | 148° |
| 2026-05-04 01:25 | 36.80174 | 27.08795 | 411 ft | 2 kts | 148° |
| 2026-05-04 01:25 | 36.80151 | 27.08814 | 411 ft | 6 kts | 148° |
| 2026-05-04 01:25 | 36.80093 | 27.08859 | 418 ft | 13 kts | 148° |
| 2026-05-04 01:25 | 36.79996 | 27.08934 | 414 ft | 18 kts | 148° |
| 2026-05-04 01:26 | 36.79882 | 27.08981 | 418 ft | 17 kts | 178° |
| 2026-05-04 01:26 | 36.79807 | 27.08984 | 413 ft | 0 kts | 178° |
| 2026-05-04 01:26 | 36.79792 | 27.08985 | 414 ft | 6 kts | 178° |
| 2026-05-04 01:27 | 36.79720 | 27.08988 | 413 ft | 14 kts | 178° |
| 2026-05-04 01:27 | 36.79618 | 27.08995 | 415 ft | 17 kts | 168° |
| 2026-05-04 01:27 | 36.79491 | 27.09088 | 416 ft | 27 kts | 148° |
| 2026-05-04 01:27 | 36.79309 | 27.09229 | 410 ft | 34 kts | 148° |
| 2026-05-04 01:28 | 36.79105 | 27.09387 | 401 ft | 35 kts | 148° |
| 2026-05-04 01:28 | 36.78895 | 27.09549 | 395 ft | 35 kts | 147° |
| 2026-05-04 01:28 | 36.78719 | 27.09689 | 392 ft | 26 kts | 148° |
| 2026-05-04 01:28 | 36.78587 | 27.09762 | 389 ft | 16 kts | 176° |
| 2026-05-04 01:29 | 36.78562 | 27.09794 | 388 ft | 1 kts | 49° |
| 2026-05-04 01:29 | 36.78573 | 27.09795 | 388 ft | 2 kts | 2° |
| 2026-05-04 01:29 | 36.78595 | 27.09785 | 389 ft | 0 kts | 330° |
| 2026-05-04 01:30 | 36.78596 | 27.09785 | 389 ft | 2 kts | 330° |
| 2026-05-04 01:30 | 36.78812 | 27.09617 | 393 ft | 73 kts | 328° |
| 2026-05-04 01:30 | 36.79429 | 27.09138 | 413 ft | 133 kts | 328° |
| 2026-05-04 01:30 | 36.80267 | 27.08440 | 897 ft | 147 kts | 327° |
| 2026-05-04 01:31 | 36.81049 | 27.07707 | 1915 ft | 139 kts | 315° |
| 2026-05-04 01:31 | 36.81372 | 27.06387 | 2248 ft | 192 kts | 274° |
| 2026-05-04 01:31 | 36.81232 | 27.04707 | 2938 ft | 189 kts | 282° |
| 2026-05-04 01:31 | 36.81703 | 27.03190 | 3244 ft | 197 kts | 311° |
| 2026-05-04 01:32 | 36.82535 | 27.01743 | 3678 ft | 211 kts | 310° |
| 2026-05-04 01:32 | 36.83401 | 27.00175 | 4064 ft | 233 kts | 310° |
| 2026-05-04 01:32 | 36.84317 | 26.98464 | 4832 ft | 240 kts | 309° |
| 2026-05-04 01:32 | 36.85232 | 26.96711 | 5739 ft | 242 kts | 308° |
| 2026-05-04 01:33 | 36.86143 | 26.94938 | 6621 ft | 243 kts | 307° |
| 2026-05-04 01:33 | 36.87059 | 26.93138 | 7415 ft | 248 kts | 307° |
| 2026-05-04 01:33 | 36.87987 | 26.91301 | 8225 ft | 251 kts | 307° |
| 2026-05-04 01:33 | 36.88923 | 26.89438 | 9045 ft | 254 kts | 306° |
| 2026-05-04 01:34 | 36.89865 | 26.87557 | 9872 ft | 257 kts | 306° |
| 2026-05-04 01:34 | 36.90830 | 26.85629 | 10411 ft | 271 kts | 306° |
| 2026-05-04 01:34 | 36.91877 | 26.83538 | 10593 ft | 295 kts | 306° |
| 2026-05-04 01:34 | 36.92998 | 26.81293 | 10968 ft | 311 kts | 305° |
| 2026-05-04 01:35 | 36.94150 | 26.78977 | 11701 ft | 314 kts | 305° |
| 2026-05-04 01:35 | 36.95295 | 26.76674 | 12498 ft | 317 kts | 305° |
| 2026-05-04 01:35 | 36.96556 | 26.74388 | 13227 ft | 320 kts | 316° |
| 2026-05-04 01:35 | 36.98350 | 26.72796 | 14078 ft | 319 kts | 335° |
| 2026-05-04 01:36 | 37.00508 | 26.72039 | 14672 ft | 329 kts | 353° |
| 2026-05-04 01:36 | 37.02806 | 26.72211 | 15480 ft | 334 kts | 9° |
| 2026-05-04 01:36 | 37.05003 | 26.73304 | 16137 ft | 349 kts | 29° |
| 2026-05-04 01:36 | 37.07067 | 26.74939 | 16804 ft | 350 kts | 19° |
| 2026-05-04 01:37 | 37.09370 | 26.75712 | 17564 ft | 348 kts | 9° |
| 2026-05-04 01:37 | 37.11771 | 26.76326 | 18139 ft | 356 kts | 8° |
| 2026-05-04 01:37 | 37.14209 | 26.76945 | 18808 ft | 358 kts | 8° |
| 2026-05-04 01:37 | 37.16657 | 26.77578 | 19408 ft | 363 kts | 9° |
| 2026-05-04 01:38 | 37.18314 | 26.78014 | 19741 ft | 367 kts | 9° |
| 2026-05-04 01:38 | 37.20818 | 26.78680 | 20438 ft | 368 kts | 10° |
| 2026-05-04 01:38 | 37.23344 | 26.79358 | 20974 ft | 374 kts | 10° |
| 2026-05-04 01:38 | 37.25892 | 26.80046 | 21610 ft | 376 kts | 10° |
| 2026-05-04 01:39 | 37.28471 | 26.80743 | 22167 ft | 380 kts | 11° |
| 2026-05-04 01:39 | 37.31074 | 26.81447 | 22673 ft | 386 kts | 11° |
| 2026-05-04 01:39 | 37.33710 | 26.82159 | 23221 ft | 390 kts | 11° |
| 2026-05-04 01:39 | 37.36385 | 26.82841 | 23714 ft | 393 kts | 6° |
| 2026-05-04 01:40 | 37.39121 | 26.82709 | 24210 ft | 395 kts | 348° |
| 2026-05-04 01:40 | 37.41731 | 26.81600 | 24640 ft | 400 kts | 333° |
| 2026-05-04 01:40 | 37.44021 | 26.79586 | 25115 ft | 403 kts | 322° |
| 2026-05-04 01:40 | 37.46164 | 26.77285 | 25557 ft | 407 kts | 320° |
| 2026-05-04 01:41 | 37.48298 | 26.74918 | 25961 ft | 410 kts | 320° |
| 2026-05-04 01:41 | 37.50414 | 26.72564 | 26424 ft | 413 kts | 320° |
| 2026-05-04 01:41 | 37.52591 | 26.70162 | 26764 ft | 417 kts | 320° |
| 2026-05-04 01:41 | 37.54783 | 26.67765 | 27229 ft | 419 kts | 321° |
| 2026-05-04 01:42 | 37.57001 | 26.65352 | 27580 ft | 423 kts | 321° |
| 2026-05-04 01:42 | 37.59241 | 26.62921 | 27946 ft | 426 kts | 321° |
| 2026-05-04 01:42 | 37.61490 | 26.60483 | 28382 ft | 428 kts | 321° |
| 2026-05-04 01:42 | 37.63753 | 26.58027 | 28724 ft | 432 kts | 321° |
| 2026-05-04 01:43 | 37.66045 | 26.55537 | 29038 ft | 435 kts | 321° |
| 2026-05-04 01:43 | 37.68345 | 26.53035 | 29464 ft | 436 kts | 321° |
| 2026-05-04 01:43 | 37.70652 | 26.50528 | 29763 ft | 440 kts | 321° |
| 2026-05-04 01:43 | 37.72960 | 26.48021 | 30072 ft | 443 kts | 321° |
| 2026-05-04 01:44 | 37.75292 | 26.45487 | 30418 ft | 443 kts | 321° |
| 2026-05-04 01:44 | 37.77626 | 26.42946 | 30797 ft | 442 kts | 321° |
| 2026-05-04 01:44 | 37.79956 | 26.40406 | 31231 ft | 440 kts | 320° |
| 2026-05-04 01:44 | 37.82266 | 26.37887 | 31713 ft | 436 kts | 320° |
| 2026-05-04 01:45 | 37.84551 | 26.35393 | 32263 ft | 431 kts | 320° |
| 2026-05-04 01:45 | 37.86821 | 26.32916 | 32782 ft | 427 kts | 320° |
| 2026-05-04 01:45 | 37.91310 | 26.27995 | 33421 ft | 428 kts | 319° |
| 2026-05-04 01:46 | 37.93541 | 26.25545 | 33652 ft | 431 kts | 319° |
| 2026-05-04 01:46 | 37.95815 | 26.23044 | 33943 ft | 431 kts | 319° |
| 2026-05-04 01:46 | 37.98083 | 26.20548 | 34239 ft | 431 kts | 319° |
| 2026-05-04 01:46 | 38.00351 | 26.18051 | 34496 ft | 431 kts | 319° |
| 2026-05-04 01:47 | 38.02611 | 26.15561 | 34733 ft | 432 kts | 319° |
| 2026-05-04 01:47 | 38.04878 | 26.13061 | 34977 ft | 432 kts | 319° |
| 2026-05-04 01:47 | 38.07148 | 26.10556 | 35223 ft | 432 kts | 319° |
| 2026-05-04 01:47 | 38.09417 | 26.08049 | 35456 ft | 432 kts | 319° |
| 2026-05-04 01:48 | 38.11656 | 26.05574 | 35701 ft | 432 kts | 319° |
| 2026-05-04 01:48 | 38.13927 | 26.03060 | 35969 ft | 432 kts | 319° |
| 2026-05-04 01:48 | 38.16190 | 26.00551 | 36210 ft | 432 kts | 319° |
| 2026-05-04 01:48 | 38.18454 | 25.98041 | 36446 ft | 432 kts | 319° |
| 2026-05-04 01:49 | 38.20722 | 25.95524 | 36713 ft | 431 kts | 319° |
| 2026-05-04 01:49 | 38.22980 | 25.93016 | 36986 ft | 430 kts | 319° |
| 2026-05-04 01:49 | 38.25317 | 25.90629 | 37268 ft | 429 kts | 325° |
| 2026-05-04 01:49 | 38.27851 | 25.88710 | 37488 ft | 429 kts | 332° |
| 2026-05-04 01:50 | 38.30512 | 25.86995 | 37747 ft | 429 kts | 333° |
| 2026-05-04 01:50 | 38.33189 | 25.85305 | 37933 ft | 429 kts | 333° |
| 2026-05-04 01:50 | 38.35882 | 25.83610 | 38122 ft | 430 kts | 333° |
| 2026-05-04 01:50 | 38.38567 | 25.81912 | 38326 ft | 430 kts | 333° |
| 2026-05-04 01:51 | 38.41244 | 25.80206 | 38623 ft | 427 kts | 332° |
| 2026-05-04 01:51 | 38.43893 | 25.78508 | 38876 ft | 426 kts | 332° |
| 2026-05-04 01:51 | 38.46547 | 25.76798 | 38987 ft | 427 kts | 332° |
| 2026-05-04 01:51 | 38.49169 | 25.75103 | 39122 ft | 427 kts | 332° |
| 2026-05-04 01:52 | 38.51824 | 25.73384 | 39296 ft | 426 kts | 332° |
| 2026-05-04 01:52 | 38.54456 | 25.71678 | 39531 ft | 424 kts | 332° |
| 2026-05-04 01:52 | 38.57087 | 25.69970 | 39697 ft | 423 kts | 332° |
| 2026-05-04 01:52 | 38.59713 | 25.68264 | 39872 ft | 422 kts | 332° |
| 2026-05-04 01:53 | 38.62329 | 25.66564 | 40083 ft | 419 kts | 332° |
| 2026-05-04 01:53 | 38.64939 | 25.64866 | 40059 ft | 421 kts | 332° |
| 2026-05-04 01:53 | 38.70121 | 25.61492 | 40085 ft | 416 kts | 332° |
| 2026-05-04 01:54 | 38.75283 | 25.58125 | 40100 ft | 417 kts | 332° |
| 2026-05-04 01:54 | 38.80417 | 25.54770 | 40090 ft | 415 kts | 332° |
| 2026-05-04 01:55 | 38.85568 | 25.51399 | 40104 ft | 416 kts | 332° |
| 2026-05-04 01:55 | 38.90751 | 25.48002 | 40102 ft | 419 kts | 332° |
| 2026-05-04 01:56 | 38.95930 | 25.44602 | 40105 ft | 418 kts | 332° |
| 2026-05-04 01:56 | 39.01124 | 25.41186 | 40105 ft | 419 kts | 333° |
| 2026-05-04 01:57 | 39.06331 | 25.37756 | 40107 ft | 421 kts | 333° |
| 2026-05-04 01:57 | 39.11519 | 25.34333 | 40104 ft | 421 kts | 333° |
| 2026-05-04 01:58 | 39.16773 | 25.30861 | 40112 ft | 422 kts | 333° |
| 2026-05-04 01:58 | 39.21990 | 25.27407 | 40117 ft | 425 kts | 333° |
| 2026-05-04 01:59 | 39.27254 | 25.23916 | 40110 ft | 425 kts | 333° |
| 2026-05-04 01:59 | 39.32512 | 25.20423 | 40123 ft | 429 kts | 333° |
| 2026-05-04 02:00 | 39.37876 | 25.16854 | 40126 ft | 433 kts | 333° |
| 2026-05-04 02:00 | 39.43230 | 25.13284 | 40128 ft | 437 kts | 333° |
| 2026-05-04 02:01 | 39.48645 | 25.09669 | 40129 ft | 440 kts | 333° |
| 2026-05-04 02:01 | 39.54115 | 25.06010 | 40123 ft | 441 kts | 333° |
| 2026-05-04 02:02 | 39.59494 | 25.02405 | 40108 ft | 432 kts | 333° |
| 2026-05-04 02:02 | 39.64829 | 24.98823 | 40125 ft | 429 kts | 333° |
| 2026-05-04 02:03 | 39.70109 | 24.95273 | 40128 ft | 428 kts | 333° |
| 2026-05-04 02:03 | 39.75398 | 24.91710 | 40128 ft | 427 kts | 333° |
| 2026-05-04 02:04 | 39.80652 | 24.88164 | 40127 ft | 428 kts | 333° |
| 2026-05-04 02:04 | 39.85937 | 24.84592 | 40125 ft | 429 kts | 333° |
| 2026-05-04 02:05 | 39.91271 | 24.80979 | 40128 ft | 431 kts | 333° |
| 2026-05-04 02:05 | 39.96575 | 24.77382 | 40139 ft | 433 kts | 333° |
| 2026-05-04 02:06 | 40.01945 | 24.73732 | 40140 ft | 435 kts | 333° |
| 2026-05-04 02:06 | 40.07305 | 24.70083 | 40137 ft | 436 kts | 333° |
| 2026-05-04 02:07 | 40.12668 | 24.66426 | 40131 ft | 438 kts | 333° |
| 2026-05-04 02:07 | 40.18064 | 24.62739 | 40132 ft | 438 kts | 333° |
| 2026-05-04 02:08 | 40.23471 | 24.59038 | 40131 ft | 438 kts | 333° |
| 2026-05-04 02:08 | 40.28882 | 24.55327 | 40131 ft | 438 kts | 333° |
| 2026-05-04 02:09 | 40.34265 | 24.51629 | 40134 ft | 437 kts | 333° |
| 2026-05-04 02:09 | 40.39662 | 24.47915 | 40136 ft | 437 kts | 333° |
| 2026-05-04 02:10 | 40.45011 | 24.44227 | 40135 ft | 435 kts | 333° |
| 2026-05-04 02:10 | 40.50396 | 24.40507 | 40134 ft | 434 kts | 333° |
| 2026-05-04 02:11 | 40.55724 | 24.36820 | 40136 ft | 433 kts | 333° |
| 2026-05-04 02:11 | 40.61032 | 24.33141 | 40139 ft | 433 kts | 333° |
| 2026-05-04 02:12 | 40.66376 | 24.29429 | 40135 ft | 432 kts | 333° |
| 2026-05-04 02:12 | 40.71656 | 24.25755 | 40138 ft | 432 kts | 333° |
| 2026-05-04 02:13 | 40.76982 | 24.22043 | 40140 ft | 432 kts | 333° |
| 2026-05-04 02:13 | 40.82308 | 24.18324 | 40147 ft | 432 kts | 333° |
| 2026-05-04 02:14 | 40.87600 | 24.14622 | 40150 ft | 432 kts | 333° |
| 2026-05-04 02:14 | 40.92931 | 24.10886 | 40153 ft | 433 kts | 333° |
| 2026-05-04 02:15 | 40.98221 | 24.07171 | 40159 ft | 434 kts | 333° |
| 2026-05-04 02:15 | 41.03556 | 24.03418 | 40159 ft | 435 kts | 333° |
| 2026-05-04 02:16 | 41.08934 | 23.99628 | 40168 ft | 435 kts | 333° |
| 2026-05-04 02:16 | 41.14247 | 23.95877 | 40169 ft | 436 kts | 333° |
| 2026-05-04 02:17 | 41.19599 | 23.92091 | 40172 ft | 436 kts | 333° |
| 2026-05-04 02:17 | 41.24954 | 23.88295 | 40168 ft | 435 kts | 333° |
| 2026-05-04 02:18 | 41.30294 | 23.84503 | 40172 ft | 435 kts | 333° |
| 2026-05-04 02:18 | 41.35628 | 23.80709 | 40178 ft | 435 kts | 333° |
| 2026-05-04 02:19 | 41.41168 | 23.77550 | 40185 ft | 432 kts | 346° |
| 2026-05-04 02:19 | 41.47065 | 23.76350 | 40187 ft | 431 kts | 354° |
| 2026-05-04 02:20 | 41.53041 | 23.75578 | 40197 ft | 431 kts | 354° |
| 2026-05-04 02:20 | 41.59031 | 23.74782 | 40185 ft | 432 kts | 354° |
| 2026-05-04 02:21 | 41.65005 | 23.73946 | 40190 ft | 431 kts | 354° |
| 2026-05-04 02:21 | 41.70974 | 23.73095 | 40195 ft | 431 kts | 354° |
| 2026-05-04 02:22 | 41.76897 | 23.72247 | 40195 ft | 431 kts | 354° |
| 2026-05-04 02:22 | 41.82861 | 23.71392 | 40195 ft | 430 kts | 354° |
| 2026-05-04 02:23 | 41.88813 | 23.70538 | 40190 ft | 430 kts | 354° |
| 2026-05-04 02:23 | 41.94770 | 23.69682 | 40194 ft | 430 kts | 354° |
| 2026-05-04 02:24 | 42.00709 | 23.68826 | 40206 ft | 429 kts | 354° |
| 2026-05-04 02:24 | 42.06652 | 23.67969 | 40193 ft | 429 kts | 354° |
| 2026-05-04 02:25 | 42.12584 | 23.67111 | 40199 ft | 428 kts | 354° |
| 2026-05-04 02:25 | 42.17507 | 23.66398 | 40203 ft | 428 kts | 354° |
| 2026-05-04 02:26 | 42.24392 | 23.65399 | 40202 ft | 428 kts | 354° |
| 2026-05-04 02:26 | 42.30310 | 23.64527 | 40199 ft | 427 kts | 352° |
| 2026-05-04 02:27 | 42.35188 | 23.63429 | 40206 ft | 427 kts | 350° |
| 2026-05-04 02:27 | 42.41022 | 23.61902 | 40196 ft | 427 kts | 349° |
| 2026-05-04 02:28 | 42.46854 | 23.60372 | 40192 ft | 426 kts | 350° |
| 2026-05-04 02:28 | 42.52675 | 23.58876 | 40194 ft | 426 kts | 350° |
| 2026-05-04 02:29 | 42.58509 | 23.57392 | 40190 ft | 426 kts | 350° |
| 2026-05-04 02:29 | 42.64338 | 23.55910 | 40185 ft | 426 kts | 350° |
| 2026-05-04 02:30 | 42.69800 | 23.54518 | 40182 ft | 426 kts | 350° |
| 2026-05-04 02:30 | 42.75658 | 23.53023 | 40185 ft | 426 kts | 350° |
| 2026-05-04 02:31 | 42.81461 | 23.51538 | 40188 ft | 426 kts | 350° |
| 2026-05-04 02:31 | 42.87296 | 23.50043 | 40190 ft | 426 kts | 350° |
| 2026-05-04 02:32 | 42.93117 | 23.48548 | 40194 ft | 427 kts | 350° |
| 2026-05-04 02:32 | 42.98976 | 23.47040 | 40199 ft | 427 kts | 350° |
| 2026-05-04 02:33 | 43.04813 | 23.45535 | 40200 ft | 428 kts | 350° |
| 2026-05-04 02:33 | 43.10640 | 23.44030 | 40195 ft | 428 kts | 350° |
| 2026-05-04 02:34 | 43.16528 | 23.42506 | 40205 ft | 428 kts | 350° |
| 2026-05-04 02:34 | 43.22367 | 23.40991 | 40190 ft | 429 kts | 350° |
| 2026-05-04 02:35 | 43.28251 | 23.39463 | 40203 ft | 429 kts | 350° |
| 2026-05-04 02:35 | 43.34101 | 23.37939 | 40195 ft | 429 kts | 350° |
| 2026-05-04 02:36 | 43.39951 | 23.36413 | 40191 ft | 430 kts | 350° |
| 2026-05-04 02:36 | 43.45852 | 23.34871 | 40199 ft | 430 kts | 350° |
| 2026-05-04 02:37 | 43.51718 | 23.33334 | 40188 ft | 431 kts | 350° |
| 2026-05-04 02:37 | 43.57635 | 23.31782 | 40178 ft | 431 kts | 350° |
| 2026-05-04 02:38 | 43.63541 | 23.30229 | 40181 ft | 431 kts | 350° |
| 2026-05-04 02:38 | 43.69411 | 23.28682 | 40175 ft | 431 kts | 350° |
| 2026-05-04 02:39 | 43.75327 | 23.27120 | 40170 ft | 432 kts | 350° |
| 2026-05-04 02:39 | 43.81204 | 23.25565 | 40169 ft | 432 kts | 350° |
| 2026-05-04 02:40 | 43.86927 | 23.23088 | 40179 ft | 434 kts | 339° |
| 2026-05-04 02:40 | 43.92501 | 23.19784 | 40163 ft | 435 kts | 338° |
| 2026-05-04 02:41 | 43.98064 | 23.16452 | 40159 ft | 435 kts | 338° |
| 2026-05-04 02:41 | 44.03616 | 23.13166 | 40162 ft | 436 kts | 339° |
| 2026-05-04 02:42 | 44.09212 | 23.09876 | 40156 ft | 437 kts | 339° |
| 2026-05-04 02:42 | 44.14825 | 23.06577 | 40160 ft | 437 kts | 339° |
| 2026-05-04 02:43 | 44.20408 | 23.03289 | 40160 ft | 438 kts | 339° |
| 2026-05-04 02:43 | 44.26006 | 22.99986 | 40157 ft | 438 kts | 339° |
| 2026-05-04 02:44 | 44.31644 | 22.96650 | 40151 ft | 439 kts | 339° |
| 2026-05-04 02:44 | 44.37251 | 22.93326 | 40157 ft | 439 kts | 339° |
| 2026-05-04 02:45 | 44.42894 | 22.89974 | 40153 ft | 439 kts | 339° |
| 2026-05-04 02:45 | 44.48487 | 22.86645 | 40152 ft | 439 kts | 339° |
| 2026-05-04 02:46 | 44.54123 | 22.83283 | 40150 ft | 437 kts | 339° |
| 2026-05-04 02:46 | 44.59672 | 22.79965 | 40152 ft | 435 kts | 339° |
| 2026-05-04 02:47 | 44.65247 | 22.76625 | 40150 ft | 433 kts | 339° |
| 2026-05-04 02:47 | 44.70739 | 22.73328 | 40158 ft | 430 kts | 339° |
| 2026-05-04 02:48 | 44.76242 | 22.70018 | 40158 ft | 428 kts | 339° |
| 2026-05-04 02:48 | 44.81724 | 22.66714 | 40157 ft | 426 kts | 339° |
| 2026-05-04 02:49 | 44.87139 | 22.63444 | 40167 ft | 425 kts | 339° |
| 2026-05-04 02:49 | 44.92585 | 22.60148 | 40165 ft | 425 kts | 339° |
| 2026-05-04 02:50 | 44.97991 | 22.56870 | 40172 ft | 425 kts | 339° |
| 2026-05-04 02:50 | 45.03434 | 22.53562 | 40176 ft | 426 kts | 339° |
| 2026-05-04 02:51 | 45.08897 | 22.50235 | 40172 ft | 426 kts | 339° |
| 2026-05-04 02:51 | 45.14315 | 22.46928 | 40183 ft | 427 kts | 338° |
| 2026-05-04 02:52 | 45.19793 | 22.43578 | 40183 ft | 429 kts | 338° |
| 2026-05-04 02:52 | 45.25307 | 22.40199 | 40183 ft | 431 kts | 338° |
| 2026-05-04 02:53 | 45.30787 | 22.36833 | 40187 ft | 432 kts | 338° |
| 2026-05-04 02:53 | 45.36288 | 22.33448 | 40176 ft | 432 kts | 338° |
| 2026-05-04 02:54 | 45.41831 | 22.30028 | 40176 ft | 432 kts | 339° |
| 2026-05-04 02:54 | 45.47317 | 22.26637 | 40172 ft | 431 kts | 339° |
| 2026-05-04 02:55 | 45.55530 | 22.21547 | 40171 ft | 428 kts | 339° |
| 2026-05-04 02:56 | 45.61000 | 22.18147 | 40170 ft | 426 kts | 339° |
| 2026-05-04 02:56 | 45.66410 | 22.14778 | 40171 ft | 424 kts | 339° |
| 2026-05-04 02:57 | 45.71827 | 22.11398 | 40173 ft | 423 kts | 339° |
| 2026-05-04 02:57 | 45.77183 | 22.08049 | 40169 ft | 422 kts | 338° |
| 2026-05-04 02:58 | 45.82581 | 22.04667 | 40172 ft | 422 kts | 338° |
| 2026-05-04 02:58 | 45.87931 | 22.01307 | 40167 ft | 422 kts | 338° |
| 2026-05-04 02:59 | 45.93324 | 21.97913 | 40168 ft | 422 kts | 338° |
| 2026-05-04 02:59 | 45.98699 | 21.94523 | 40164 ft | 423 kts | 338° |
| 2026-05-04 03:00 | 46.04074 | 21.91126 | 40164 ft | 425 kts | 338° |
| 2026-05-04 03:00 | 46.09516 | 21.87679 | 40165 ft | 426 kts | 338° |
| 2026-05-04 03:01 | 46.14921 | 21.84249 | 40163 ft | 426 kts | 338° |
| 2026-05-04 03:01 | 46.20365 | 21.80785 | 40169 ft | 427 kts | 338° |
| 2026-05-04 03:02 | 46.25774 | 21.77337 | 40158 ft | 428 kts | 338° |
| 2026-05-04 03:02 | 46.31245 | 21.73842 | 40157 ft | 428 kts | 338° |
| 2026-05-04 03:03 | 46.36664 | 21.70371 | 40162 ft | 428 kts | 338° |
| 2026-05-04 03:03 | 46.42130 | 21.66863 | 40158 ft | 428 kts | 338° |
| 2026-05-04 03:04 | 46.47535 | 21.63387 | 40160 ft | 427 kts | 338° |
| 2026-05-04 03:04 | 46.52993 | 21.59869 | 40165 ft | 426 kts | 338° |
| 2026-05-04 03:05 | 46.58382 | 21.56387 | 40160 ft | 426 kts | 338° |
| 2026-05-04 03:05 | 46.63799 | 21.52880 | 40162 ft | 425 kts | 338° |
| 2026-05-04 03:06 | 46.69208 | 21.49371 | 40159 ft | 425 kts | 338° |
| 2026-05-04 03:06 | 46.74571 | 21.45823 | 40160 ft | 425 kts | 337° |
| 2026-05-04 03:07 | 46.79934 | 21.42240 | 40157 ft | 424 kts | 337° |
| 2026-05-04 03:07 | 46.85328 | 21.38630 | 40159 ft | 424 kts | 337° |
| 2026-05-04 03:08 | 46.90664 | 21.35057 | 40161 ft | 425 kts | 337° |
| 2026-05-04 03:08 | 46.96035 | 21.31455 | 40160 ft | 425 kts | 337° |
| 2026-05-04 03:09 | 47.01426 | 21.27831 | 40151 ft | 425 kts | 337° |
| 2026-05-04 03:09 | 47.06822 | 21.24197 | 40166 ft | 426 kts | 337° |
| 2026-05-04 03:10 | 47.12189 | 21.20573 | 40167 ft | 426 kts | 336° |
| 2026-05-04 03:10 | 47.17561 | 21.16938 | 40164 ft | 427 kts | 336° |
| 2026-05-04 03:11 | 47.22962 | 21.13275 | 40165 ft | 427 kts | 336° |
| 2026-05-04 03:11 | 47.28383 | 21.09590 | 40152 ft | 427 kts | 336° |
| 2026-05-04 03:12 | 47.33755 | 21.05931 | 40162 ft | 427 kts | 336° |
| 2026-05-04 03:12 | 47.39171 | 21.02232 | 40165 ft | 428 kts | 336° |
| 2026-05-04 03:13 | 47.44552 | 20.98550 | 40153 ft | 428 kts | 336° |
| 2026-05-04 03:13 | 47.49933 | 20.94859 | 40152 ft | 428 kts | 336° |
| 2026-05-04 03:14 | 47.55336 | 20.91145 | 40154 ft | 427 kts | 336° |
| 2026-05-04 03:14 | 47.60750 | 20.87414 | 40149 ft | 427 kts | 336° |
| 2026-05-04 03:15 | 47.66128 | 20.83700 | 40152 ft | 427 kts | 336° |
| 2026-05-04 03:15 | 47.71481 | 20.79995 | 40150 ft | 427 kts | 336° |
| 2026-05-04 03:16 | 47.76873 | 20.76253 | 40146 ft | 427 kts | 336° |
| 2026-05-04 03:16 | 47.81353 | 20.73139 | 40148 ft | 427 kts | 336° |
| 2026-05-04 03:17 | 47.86750 | 20.69379 | 40145 ft | 427 kts | 336° |
| 2026-05-04 03:17 | 47.92137 | 20.65617 | 40140 ft | 427 kts | 336° |
| 2026-05-04 03:18 | 47.97500 | 20.61863 | 40144 ft | 427 kts | 336° |
| 2026-05-04 03:18 | 48.02863 | 20.58100 | 40147 ft | 427 kts | 336° |
| 2026-05-04 03:19 | 48.08260 | 20.54306 | 40137 ft | 427 kts | 336° |
| 2026-05-04 03:19 | 48.13615 | 20.50531 | 40141 ft | 427 kts | 336° |
| 2026-05-04 03:20 | 48.19016 | 20.46715 | 40143 ft | 428 kts | 335° |
| 2026-05-04 03:20 | 48.24375 | 20.42919 | 40144 ft | 428 kts | 335° |
| 2026-05-04 03:21 | 48.29776 | 20.39086 | 40145 ft | 428 kts | 335° |
| 2026-05-04 03:21 | 48.35118 | 20.35202 | 40146 ft | 429 kts | 334° |
| 2026-05-04 03:22 | 48.40402 | 20.31002 | 40147 ft | 429 kts | 333° |
| 2026-05-04 03:22 | 48.45644 | 20.26776 | 40148 ft | 429 kts | 333° |
| 2026-05-04 03:23 | 48.50935 | 20.22540 | 40149 ft | 429 kts | 333° |
| 2026-05-04 03:23 | 48.56200 | 20.18338 | 40148 ft | 429 kts | 333° |
| 2026-05-04 03:24 | 48.61466 | 20.14132 | 40146 ft | 430 kts | 333° |
| 2026-05-04 03:24 | 48.66769 | 20.09887 | 40153 ft | 430 kts | 333° |
| 2026-05-04 03:25 | 48.72071 | 20.05631 | 40153 ft | 431 kts | 333° |
| 2026-05-04 03:25 | 48.76648 | 20.01949 | 40126 ft | 416 kts | 333° |
| 2026-05-04 03:25 | 48.79159 | 19.99924 | 40118 ft | 400 kts | 333° |
| 2026-05-04 03:26 | 48.81573 | 19.97976 | 39789 ft | 389 kts | 333° |
| 2026-05-04 03:26 | 48.83935 | 19.96068 | 38985 ft | 393 kts | 333° |
| 2026-05-04 03:26 | 48.86393 | 19.94084 | 37705 ft | 404 kts | 333° |
| 2026-05-04 03:26 | 48.88907 | 19.92050 | 36416 ft | 414 kts | 333° |
| 2026-05-04 03:27 | 48.91423 | 19.90011 | 36033 ft | 401 kts | 333° |
| 2026-05-04 03:27 | 48.93856 | 19.88036 | 35523 ft | 392 kts | 333° |
| 2026-05-04 03:27 | 48.96237 | 19.86101 | 35170 ft | 387 kts | 333° |
| 2026-05-04 03:27 | 48.98636 | 19.84151 | 34762 ft | 395 kts | 333° |
| 2026-05-04 03:28 | 49.01108 | 19.82142 | 34399 ft | 409 kts | 333° |
| 2026-05-04 03:28 | 49.03628 | 19.80089 | 33856 ft | 409 kts | 333° |
| 2026-05-04 03:28 | 49.06120 | 19.78056 | 33402 ft | 405 kts | 333° |
| 2026-05-04 03:28 | 49.08595 | 19.76033 | 32976 ft | 401 kts | 333° |
| 2026-05-04 03:29 | 49.11041 | 19.74032 | 32546 ft | 397 kts | 332° |
| 2026-05-04 03:29 | 49.13462 | 19.72050 | 32140 ft | 393 kts | 332° |
| 2026-05-04 03:29 | 49.15863 | 19.70083 | 31719 ft | 390 kts | 332° |
| 2026-05-04 03:29 | 49.18244 | 19.68129 | 31309 ft | 387 kts | 332° |
| 2026-05-04 03:30 | 49.20612 | 19.66221 | 30914 ft | 384 kts | 336° |
| 2026-05-04 03:30 | 49.23093 | 19.64860 | 30514 ft | 381 kts | 345° |
| 2026-05-04 03:30 | 49.25713 | 19.64087 | 30077 ft | 380 kts | 354° |
| 2026-05-04 03:30 | 49.28334 | 19.63973 | 29618 ft | 382 kts | 0° |
| 2026-05-04 03:31 | 49.31002 | 19.64091 | 29175 ft | 382 kts | 1° |
| 2026-05-04 03:31 | 49.33645 | 19.64235 | 28754 ft | 378 kts | 1° |
| 2026-05-04 03:31 | 49.36269 | 19.64357 | 28329 ft | 375 kts | 1° |
| 2026-05-04 03:31 | 49.38857 | 19.64453 | 27909 ft | 371 kts | 0° |
| 2026-05-04 03:32 | 49.41430 | 19.64538 | 27498 ft | 368 kts | 0° |
| 2026-05-04 03:32 | 49.43965 | 19.64965 | 27062 ft | 367 kts | 15° |
| 2026-05-04 03:32 | 49.46312 | 19.66502 | 26702 ft | 366 kts | 30° |
| 2026-05-04 03:32 | 49.48295 | 19.68946 | 26281 ft | 367 kts | 44° |
| 2026-05-04 03:33 | 49.50065 | 19.71793 | 25895 ft | 370 kts | 46° |
| 2026-05-04 03:33 | 49.51812 | 19.74712 | 25478 ft | 370 kts | 46° |
| 2026-05-04 03:33 | 49.53552 | 19.77632 | 25072 ft | 368 kts | 46° |
| 2026-05-04 03:33 | 49.55287 | 19.80520 | 24672 ft | 366 kts | 45° |
| 2026-05-04 03:34 | 49.57018 | 19.83380 | 24273 ft | 365 kts | 45° |
| 2026-05-04 03:34 | 49.58751 | 19.86228 | 23888 ft | 363 kts | 45° |
| 2026-05-04 03:34 | 49.60671 | 19.88655 | 23284 ft | 354 kts | 25° |
| 2026-05-04 03:34 | 49.63018 | 19.89611 | 22516 ft | 349 kts | 1° |
| 2026-05-04 03:35 | 49.65390 | 19.89316 | 21796 ft | 346 kts | 346° |
| 2026-05-04 03:35 | 49.67497 | 19.88445 | 21170 ft | 343 kts | 343° |
| 2026-05-04 03:35 | 49.69776 | 19.87399 | 20534 ft | 341 kts | 342° |
| 2026-05-04 03:35 | 49.72051 | 19.86329 | 19894 ft | 339 kts | 342° |
| 2026-05-04 03:36 | 49.74300 | 19.85275 | 19274 ft | 337 kts | 342° |
| 2026-05-04 03:36 | 49.76536 | 19.84237 | 18660 ft | 335 kts | 342° |
| 2026-05-04 03:36 | 49.78760 | 19.83215 | 18005 ft | 333 kts | 342° |
| 2026-05-04 03:36 | 49.80980 | 19.82202 | 17357 ft | 331 kts | 342° |
| 2026-05-04 03:37 | 49.83177 | 19.81204 | 16743 ft | 328 kts | 342° |
| 2026-05-04 03:37 | 49.85365 | 19.80212 | 16119 ft | 325 kts | 342° |
| 2026-05-04 03:37 | 49.87531 | 19.79231 | 15534 ft | 323 kts | 342° |
| 2026-05-04 03:37 | 49.89649 | 19.78271 | 14953 ft | 321 kts | 342° |
| 2026-05-04 03:38 | 49.91817 | 19.77288 | 14368 ft | 319 kts | 342° |
| 2026-05-04 03:38 | 49.93937 | 19.76327 | 13798 ft | 317 kts | 342° |
| 2026-05-04 03:38 | 49.96013 | 19.75384 | 13201 ft | 315 kts | 342° |
| 2026-05-04 03:38 | 49.98109 | 19.74432 | 12591 ft | 313 kts | 342° |
| 2026-05-04 03:39 | 50.00193 | 19.73485 | 12067 ft | 309 kts | 342° |
| 2026-05-04 03:39 | 50.02251 | 19.72548 | 11682 ft | 308 kts | 342° |
| 2026-05-04 03:39 | 50.04302 | 19.71613 | 11320 ft | 307 kts | 342° |
| 2026-05-04 03:39 | 50.06356 | 19.70676 | 10963 ft | 307 kts | 342° |
| 2026-05-04 03:40 | 50.08398 | 19.69744 | 10604 ft | 306 kts | 342° |
| 2026-05-04 03:40 | 50.10442 | 19.68811 | 10334 ft | 303 kts | 341° |
| 2026-05-04 03:40 | 50.12435 | 19.67901 | 10172 ft | 295 kts | 341° |
| 2026-05-04 03:40 | 50.14377 | 19.67013 | 10021 ft | 288 kts | 341° |
| 2026-05-04 03:41 | 50.16304 | 19.66130 | 9690 ft | 288 kts | 341° |
| 2026-05-04 03:41 | 50.18222 | 19.65250 | 9375 ft | 287 kts | 341° |
| 2026-05-04 03:41 | 50.20134 | 19.64372 | 9064 ft | 286 kts | 341° |
| 2026-05-04 03:41 | 50.22036 | 19.63498 | 8760 ft | 285 kts | 341° |
| 2026-05-04 03:42 | 50.23933 | 19.62627 | 8452 ft | 284 kts | 341° |
| 2026-05-04 03:42 | 50.25822 | 19.61758 | 8145 ft | 283 kts | 341° |
| 2026-05-04 03:42 | 50.27709 | 19.60890 | 7844 ft | 282 kts | 341° |
| 2026-05-04 03:42 | 50.29593 | 19.60022 | 7533 ft | 282 kts | 341° |
| 2026-05-04 03:43 | 50.31478 | 19.59120 | 7142 ft | 285 kts | 341° |
| 2026-05-04 03:43 | 50.33352 | 19.58199 | 6770 ft | 281 kts | 340° |
| 2026-05-04 03:43 | 50.35192 | 19.57292 | 6466 ft | 273 kts | 340° |
| 2026-05-04 03:43 | 50.36992 | 19.56406 | 6180 ft | 270 kts | 340° |
| 2026-05-04 03:44 | 50.38783 | 19.55525 | 5895 ft | 270 kts | 340° |
| 2026-05-04 03:44 | 50.40552 | 19.54654 | 5622 ft | 269 kts | 340° |
| 2026-05-04 03:44 | 50.42329 | 19.53780 | 5455 ft | 264 kts | 340° |
| 2026-05-04 03:44 | 50.44063 | 19.52929 | 5343 ft | 257 kts | 339° |
| 2026-05-04 03:45 | 50.45715 | 19.51995 | 5221 ft | 247 kts | 326° |
| 2026-05-04 03:45 | 50.46893 | 19.50197 | 5067 ft | 232 kts | 295° |
| 2026-05-04 03:45 | 50.47423 | 19.47909 | 5007 ft | 218 kts | 274° |
| 2026-05-04 03:45 | 50.47509 | 19.45562 | 4917 ft | 213 kts | 267° |
| 2026-05-04 03:46 | 50.47510 | 19.43277 | 4788 ft | 207 kts | 266° |
| 2026-05-04 03:46 | 50.47509 | 19.41013 | 4557 ft | 207 kts | 266° |
| 2026-05-04 03:46 | 50.47512 | 19.38762 | 4342 ft | 205 kts | 266° |
| 2026-05-04 03:46 | 50.47547 | 19.36555 | 4181 ft | 200 kts | 267° |
| 2026-05-04 03:47 | 50.47576 | 19.34433 | 4015 ft | 192 kts | 266° |
| 2026-05-04 03:47 | 50.47582 | 19.32378 | 3804 ft | 185 kts | 265° |
| 2026-05-04 03:47 | 50.47583 | 19.30416 | 3572 ft | 174 kts | 264° |
| 2026-05-04 03:47 | 50.47583 | 19.28595 | 3349 ft | 159 kts | 264° |
| 2026-05-04 03:48 | 50.47584 | 19.26927 | 3135 ft | 146 kts | 263° |
| 2026-05-04 03:48 | 50.47584 | 19.25413 | 2960 ft | 134 kts | 262° |
| 2026-05-04 03:48 | 50.47584 | 19.24014 | 2793 ft | 125 kts | 261° |
| 2026-05-04 03:48 | 50.47582 | 19.22643 | 2631 ft | 127 kts | 262° |
| 2026-05-04 03:49 | 50.47582 | 19.21233 | 2465 ft | 130 kts | 262° |
| 2026-05-04 03:49 | 50.47584 | 19.19802 | 2290 ft | 132 kts | 263° |
| 2026-05-04 03:49 | 50.47586 | 19.18382 | 2107 ft | 129 kts | 263° |
| 2026-05-04 03:49 | 50.47586 | 19.16969 | 1938 ft | 132 kts | 263° |
| 2026-05-04 03:50 | 50.47587 | 19.15517 | 1756 ft | 136 kts | 265° |
| 2026-05-04 03:50 | 50.47589 | 19.14016 | 1558 ft | 140 kts | 266° |
| 2026-05-04 03:50 | 50.47605 | 19.12473 | 1371 ft | 141 kts | 267° |
| 2026-05-04 03:50 | 50.47603 | 19.10923 | 1162 ft | 142 kts | 267° |
| 2026-05-04 03:51 | 50.47599 | 19.09385 | 1027 ft | 136 kts | 268° |
| 2026-05-04 03:51 | 50.47601 | 19.08067 | 1009 ft | 100 kts | 270° |
| 2026-05-04 03:51 | 50.47597 | 19.07255 | 1004 ft | 45 kts | 263° |
| 2026-05-04 03:51 | 50.47511 | 19.06913 | 999 ft | 12 kts | 240° |
| 2026-05-04 03:52 | 50.47510 | 19.06909 | 999 ft | 0 kts | 240° |
| 2026-05-04 03:52 | 50.47489 | 19.06852 | 1004 ft | 12 kts | 240° |
| 2026-05-04 03:52 | 50.47442 | 19.06726 | 998 ft | 14 kts | 239° |
| 2026-05-04 03:53 | 50.47373 | 19.06631 | 997 ft | 14 kts | 188° |
| 2026-05-04 03:53 | 50.47280 | 19.06626 | 999 ft | 13 kts | 166° |
| 2026-05-04 03:53 | 50.47235 | 19.06737 | 998 ft | 13 kts | 90° |
| 2026-05-04 03:53 | 50.47236 | 19.06875 | 1005 ft | 12 kts | 90° |
| 2026-05-04 03:54 | 50.47235 | 19.07009 | 1006 ft | 12 kts | 90° |
| 2026-05-04 03:54 | 50.47235 | 19.07140 | 1007 ft | 8 kts | 90° |
| 2026-05-04 03:54 | 50.47235 | 19.07196 | 1004 ft | 5 kts | 90° |
| 2026-05-04 03:54 | 50.47207 | 19.07212 | 1009 ft | 5 kts | 187° |
| 2026-05-04 03:55 | 50.47195 | 19.07212 | 1005 ft | 1 kts | 181° |
| 2026-05-04 03:55 | 50.47187 | 19.07212 | 1006 ft | 1 kts | 180° |
| 2026-05-04 03:55 | 50.47180 | 19.07212 | 1004 ft | 0 kts | 180° |